createdAt,value
2022-08-16T00:07:56.570Z,26.8
2022-08-16T00:17:56.664Z,26.8
2022-08-16T00:27:57.846Z,26.8
2022-08-16T00:37:59.772Z,26.8
2022-08-16T00:58:04.906Z,26.7
2022-08-16T01:08:35.598Z,26.7
2022-08-16T01:18:08.767Z,26.7
2022-08-16T01:28:10.471Z,26.7
2022-08-16T01:38:12.755Z,26.6
2022-08-16T01:48:19.347Z,26.6
2022-08-16T01:58:17.252Z,26.6
2022-08-16T02:08:33.121Z,26.6
2022-08-16T02:18:21.348Z,26.5
2022-08-16T02:28:23.926Z,26.5
2022-08-16T02:38:25.698Z,26.5
2022-08-16T02:48:28.721Z,26.5
2022-08-16T02:58:30.079Z,26.5
2022-08-16T03:08:51.480Z,26.5
2022-08-16T03:18:34.405Z,26.4
2022-08-16T03:28:36.594Z,26.4
2022-08-16T03:48:41.308Z,26.4
2022-08-16T04:28:53.131Z,26.3
2022-08-16T04:38:52.386Z,26.2
2022-08-16T04:48:54.568Z,26.2
2022-08-16T04:58:57.637Z,26.1
2022-08-16T05:39:05.450Z,26
2022-08-16T05:59:09.666Z,26
2022-08-16T06:09:11.947Z,26.1
2022-08-16T06:29:16.535Z,26.1
2022-08-16T06:39:18.723Z,26.1
2022-08-16T07:09:25.137Z,26.2
2022-08-16T07:19:33.405Z,26.3
2022-08-16T07:29:31.435Z,26.3
2022-08-16T07:39:33.703Z,26.4
2022-08-16T07:49:34.875Z,26.4
2022-08-16T07:59:42.669Z,26.4
2022-08-16T08:09:43.334Z,26.5
2022-08-16T08:19:41.212Z,26.6
2022-08-16T08:29:43.347Z,26.6
2022-08-16T08:39:53.514Z,26.7
2022-08-16T08:49:54.957Z,26.8
2022-08-16T08:59:50.181Z,26.8
2022-08-16T09:10:00.982Z,26.9
2022-08-16T09:29:59.680Z,27
2022-08-16T09:39:59.574Z,27
2022-08-16T09:50:00.815Z,27.1
2022-08-16T10:00:03.339Z,27.1
2022-08-16T10:10:09.760Z,27.1
2022-08-16T10:20:07.693Z,27.1
2022-08-16T10:30:25.421Z,27.1
2022-08-16T10:40:28.268Z,27.2
2022-08-16T10:50:18.836Z,27.2
2022-08-16T11:00:20.762Z,27.2
2022-08-16T11:10:57.369Z,27.2
2022-08-16T11:20:42.660Z,27.2
2022-08-16T11:30:24.209Z,27.2
2022-08-16T11:40:25.049Z,27.2
2022-08-16T11:50:26.478Z,27.2
2022-08-16T12:00:33.337Z,27.2
2022-08-16T12:40:37.822Z,27.3
2022-08-16T13:00:43.078Z,27.3
2022-08-16T13:10:45.662Z,27.3
2022-08-16T13:20:47.619Z,27.3
2022-08-16T13:50:53.822Z,27.3
2022-08-16T14:00:55.848Z,27.3
2022-08-16T14:20:59.941Z,27.4
2022-08-16T14:31:02.351Z,27.4
2022-08-16T14:51:07.051Z,27.4
2022-08-16T15:01:09.946Z,27.4
2022-08-16T15:11:11.559Z,27.4
2022-08-16T15:21:13.464Z,27.4
2022-08-16T15:51:20.113Z,27.5
2022-08-16T16:01:23.917Z,27.5
2022-08-16T16:11:24.918Z,27.5
2022-08-16T16:21:26.713Z,27.5
2022-08-16T16:31:29.156Z,27.5
2022-08-16T16:41:31.512Z,27.5
2022-08-16T16:51:40.495Z,27.5
2022-08-16T17:01:41.552Z,27.5
2022-08-16T17:11:37.625Z,27.6
2022-08-16T17:21:40.008Z,27.6
2022-08-16T17:31:43.388Z,27.6
2022-08-16T17:41:43.867Z,27.6
2022-08-16T18:01:48.934Z,27.6
2022-08-16T18:11:51.276Z,27.6
2022-08-16T18:21:53.867Z,27.6
2022-08-16T18:31:56.275Z,27.6
2022-08-16T18:41:58.247Z,27.6
2022-08-16T18:52:00.501Z,27.6
2022-08-16T19:02:04.576Z,27.6
2022-08-16T19:12:05.347Z,27.6
2022-08-16T19:22:07.997Z,27.6
2022-08-16T19:22:45.540Z,27.6
2022-08-16T19:32:17.638Z,27.6
2022-08-16T19:42:19.489Z,27.6
2022-08-16T19:52:21.466Z,27.6
2022-08-16T20:12:26.345Z,27.6
2022-08-16T20:22:50.110Z,27.5
2022-08-16T20:32:35.899Z,27.5
2022-08-16T20:52:34.840Z,27.5
2022-08-16T21:02:37.950Z,27.5
2022-08-16T21:12:38.860Z,27.4
2022-08-16T21:22:40.805Z,27.4
2022-08-16T21:32:43.598Z,27.4
2022-08-16T21:42:45.380Z,27.3
2022-08-16T22:02:51.289Z,27.2
2022-08-16T22:12:51.740Z,27.2
2022-08-16T22:22:53.878Z,27.1
2022-08-16T22:32:56.564Z,27.1
2022-08-16T22:42:58.971Z,27.1
2022-08-16T22:53:01.732Z,27
2022-08-16T23:03:03.663Z,27
2022-08-16T23:13:05.362Z,27
2022-08-16T23:23:20.067Z,26.9
2022-08-16T23:43:12.542Z,26.9
2022-08-16T23:53:15.171Z,26.9
